Time;durP1;ratioP1;P1;durP2;ratioP2;P2;SDS_P1;SDS_P2;PMS_P1;PMS_P2;Temp;Humidity;BMP_temperature;BMP_pressure;BME280_temperature;BME280_humidity;BME280_pressure;Samples;Min_cycle;Max_cycle;Signal;HPM_P1;HPM_P2
2022/10/19 00:00:43;;;;;;;10.27;6.60;;;;;;;13.56;nan;101544.16;5086906;28;20274;-68
2022/10/19 00:03:08;;;;;;;8.73;5.95;;;;;;;13.56;nan;101546.81;5084916;28;20103;-68
2022/10/19 00:05:34;;;;;;;6.78;5.25;;;;;;;13.51;nan;101538.44;5090840;28;20384;-68
2022/10/19 00:08:00;;;;;;;6.15;4.22;;;;;;;13.53;nan;101536.47;5085727;28;20063;-68
2022/10/19 00:10:26;;;;;;;6.93;3.70;;;;;;;13.51;nan;101535.78;5082093;28;20036;-68
2022/10/19 00:12:51;;;;;;;5.75;3.45;;;;;;;13.50;nan;101526.97;5086021;28;20088;-68
2022/10/19 00:15:16;;;;;;;5.05;3.83;;;;;;;13.51;nan;101533.97;5083065;28;20040;-68
2022/10/19 00:17:42;;;;;;;4.20;3.30;;;;;;;13.50;nan;101536.78;5086891;28;20040;-68
2022/10/19 00:20:08;;;;;;;4.88;3.38;;;;;;;13.52;nan;101540.13;5087289;28;20080;-69
2022/10/19 00:22:33;;;;;;;4.78;3.90;;;;;;;13.53;nan;101541.78;5092566;28;20081;-68
2022/10/19 00:24:58;;;;;;;3.75;3.17;;;;;;;13.50;nan;101539.44;5087158;28;20122;-68
2022/10/19 00:27:23;;;;;;;3.90;3.05;;;;;;;13.46;nan;101535.41;5085243;28;20039;-69
2022/10/19 00:29:49;;;;;;;3.72;2.95;;;;;;;13.39;nan;101529.81;5081692;28;20079;-68
2022/10/19 00:32:14;;;;;;;5.57;3.58;;;;;;;13.32;nan;101532.25;5077305;28;20070;-69
2022/10/19 00:34:39;;;;;;;6.40;4.65;;;;;;;13.29;nan;101529.84;5083624;28;20033;-68
2022/10/19 00:37:05;;;;;;;5.18;3.95;;;;;;;13.26;nan;101531.94;5078921;28;20028;-68
2022/10/19 00:39:30;;;;;;;5.20;4.38;;;;;;;13.20;nan;101530.69;5084122;28;20036;-69
2022/10/19 00:41:55;;;;;;;4.68;3.90;;;;;;;13.13;nan;101527.78;5085070;28;20048;-68
2022/10/19 00:44:29;;;;;;;5.40;3.83;;;;;;;13.07;nan;101530.19;5084119;28;20416;-69
2022/10/19 00:47:02;;;;;;;4.57;2.97;;;;;;;13.03;nan;101534.09;5084809;28;20386;-69
2022/10/19 00:49:30;;;;;;;5.93;4.80;;;;;;;12.95;nan;101526.84;5083960;28;20044;-68
2022/10/19 00:52:00;;;;;;;5.97;4.10;;;;;;;12.93;nan;101536.78;5082623;28;20040;-69
2022/10/19 00:54:26;;;;;;;5.47;4.28;;;;;;;12.87;nan;101524.91;5084241;28;20056;-69
2022/10/19 00:56:55;;;;;;;4.35;3.30;;;;;;;12.84;nan;101521.69;5085387;28;20042;-68
2022/10/19 00:59:23;;;;;;;4.90;3.58;;;;;;;12.81;nan;101517.50;5077068;28;20032;-68
2022/10/19 01:01:49;;;;;;;6.07;3.80;;;;;;;12.82;nan;101519.16;5084839;28;20084;-69
2022/10/19 01:04:15;;;;;;;9.02;5.75;;;;;;;12.89;nan;101507.00;5083221;28;20028;-69
2022/10/19 01:06:41;;;;;;;8.70;5.45;;;;;;;13.01;nan;101507.69;5094257;28;20032;-69
2022/10/19 01:09:08;;;;;;;9.40;6.03;;;;;;;13.07;nan;101504.47;5084848;28;20161;-69
2022/10/19 01:11:59;;;;;;;6.28;4.95;;;;;;;13.16;nan;101502.75;5071141;28;20106;-68
2022/10/19 01:14:33;;;;;;;7.55;5.10;;;;;;;13.22;nan;101496.84;5083091;28;20028;-68
2022/10/19 01:17:20;;;;;;;7.57;5.07;;;;;;;13.23;nan;101501.19;5086945;28;20032;-68
2022/10/19 01:20:00;;;;;;;;;;;;;;;13.14;nan;101510.88;5085026;28;20068;-68
2022/10/19 01:22:58;;;;;;;5.75;3.95;;;;;;;13.01;nan;101510.31;5091824;28;20061;-68
2022/10/19 01:25:34;;;;;;;;;;;;;;;12.88;nan;101508.00;5083323;28;20482;-68
2022/10/19 01:28:24;;;;;;;3.42;2.95;;;;;;;12.76;nan;101503.81;5068531;28;19939;-68
2022/10/19 01:31:03;;;;;;;5.00;3.50;;;;;;;12.67;nan;101499.38;5069488;28;20066;-68
2022/10/19 01:33:41;;;;;;;12.40;2.60;;;;;;;12.75;nan;101494.16;5081120;28;20476;-68
2022/10/19 01:36:34;;;;;;;2.65;2.03;;;;;;;12.63;nan;101496.19;5081938;28;20048;-68
2022/10/19 01:39:19;;;;;;;2.53;1.92;;;;;;;12.57;nan;101494.06;5083697;28;20039;-68
2022/10/19 01:41:58;;;;;;;2.00;1.63;;;;;;;12.52;nan;101494.50;5067808;28;20036;-68
2022/10/19 01:44:34;;;;;;;3.50;2.40;;;;;;;12.45;nan;101493.38;5084033;28;20336;-68
2022/10/19 01:47:06;;;;;;;3.20;2.63;;;;;;;12.39;nan;101496.56;5068037;28;20031;-68
2022/10/19 01:49:40;;;;;;;3.20;2.50;;;;;;;12.32;nan;101488.38;5079236;28;20032;-68
2022/10/19 01:52:08;;;;;;;;;;;;;;;12.26;nan;101482.78;5082091;28;20050;-68
2022/10/19 01:54:41;;;;;;;3.75;2.45;;;;;;;12.22;nan;101482.19;5082852;28;20422;-69
2022/10/19 01:57:10;;;;;;;3.25;2.47;;;;;;;12.19;nan;101477.19;5080804;28;20123;-68
2022/10/19 01:59:37;;;;;;;4.40;3.00;;;;;;;12.19;nan;101471.06;5082723;28;20036;-69
2022/10/19 02:02:04;;;;;;;18.70;10.35;;;;;;;12.38;nan;101470.22;5077229;28;20064;-69
2022/10/19 02:04:31;;;;;;;24.50;12.77;;;;;;;12.62;nan;101467.13;5082784;28;20392;-69
2022/10/19 02:06:58;;;;;;;25.00;12.48;;;;;;;12.77;nan;101471.00;5086798;28;20119;-69
2022/10/19 02:09:23;;;;;;;24.95;11.25;;;;;;;12.88;nan;101459.38;5064908;28;20131;-69
2022/10/19 02:11:55;;;;;;;22.98;10.70;;;;;;;12.90;nan;101458.25;5080031;28;20530;-68
2022/10/19 02:14:27;;;;;;;20.23;10.20;;;;;;;12.93;nan;101460.59;5078063;28;20028;-68
2022/10/19 02:16:58;;;;;;;15.77;9.30;;;;;;;12.93;nan;101455.31;5078397;28;20039;-68
2022/10/19 02:19:23;;;;;;;15.52;8.18;;;;;;;12.92;nan;101461.59;5082424;28;20029;-68
2022/10/19 02:21:50;;;;;;;15.60;8.65;;;;;;;12.90;nan;101454.78;5084196;28;20051;-68
2022/10/19 02:24:15;;;;;;;15.65;7.90;;;;;;;12.85;nan;101457.84;5085926;28;20425;-68
2022/10/19 02:26:41;;;;;;;11.18;6.80;;;;;;;12.81;nan;101456.47;5085015;28;20066;-68
2022/10/19 02:29:08;;;;;;;12.98;6.60;;;;;;;12.76;nan;101456.06;5084643;28;20038;-68
2022/10/19 02:31:33;;;;;;;9.95;6.40;;;;;;;12.76;nan;101456.06;5079648;28;20130;-68
2022/10/19 02:33:59;;;;;;;9.98;5.97;;;;;;;12.72;nan;101454.66;5075888;28;20539;-68
2022/10/19 02:36:24;;;;;;;10.60;5.78;;;;;;;12.67;nan;101460.41;5071227;28;20043;-68
2022/10/19 02:38:49;;;;;;;9.15;5.72;;;;;;;12.58;nan;101468.38;5083791;28;20093;-68
2022/10/19 02:41:21;;;;;;;8.05;5.38;;;;;;;12.49;nan;101456.81;5078117;28;20047;-68
2022/10/19 02:43:56;;;;;;;7.72;4.70;;;;;;;12.46;nan;101463.22;5082735;28;20741;-69
2022/10/19 02:46:34;;;;;;;6.13;4.75;;;;;;;12.39;nan;101462.09;5079049;28;20465;-68
2022/10/19 02:49:03;;;;;;;5.57;4.78;;;;;;;12.37;nan;101465.88;5079052;28;20063;-68
2022/10/19 02:51:31;;;;;;;5.05;3.70;;;;;;;12.35;nan;101465.16;5066759;28;20048;-68
2022/10/19 02:53:57;;;;;;;5.00;3.80;;;;;;;12.32;nan;101469.81;5083466;28;20424;-68
2022/10/19 02:56:22;;;;;;;5.30;3.70;;;;;;;12.31;nan;101454.84;5084817;28;20047;-68
2022/10/19 02:58:48;;;;;;;5.15;4.07;;;;;;;12.30;nan;101453.19;5080960;28;20136;-68
2022/10/19 03:01:13;;;;;;;5.20;4.00;;;;;;;12.31;nan;101454.03;5083350;28;20037;-68
2022/10/19 03:03:38;;;;;;;6.72;4.63;;;;;;;12.36;nan;101451.78;5087133;28;20031;-69
2022/10/19 03:06:04;;;;;;;5.43;4.18;;;;;;;12.42;nan;101451.22;5084942;28;20038;-68
2022/10/19 03:08:29;;;;;;;5.60;4.10;;;;;;;12.41;nan;101457.50;5067272;28;20074;-68
2022/10/19 03:10:57;;;;;;;9.52;5.75;;;;;;;12.47;nan;101450.81;5080724;28;20081;-68
2022/10/19 03:13:22;;;;;;;16.55;9.15;;;;;;;12.57;nan;101454.28;5090558;28;20643;-68
2022/10/19 03:15:48;;;;;;;16.85;9.30;;;;;;;12.70;nan;101453.97;5073547;28;20040;-66
2022/10/19 03:18:13;;;;;;;14.18;8.40;;;;;;;12.81;nan;101453.81;5076001;28;20036;-69
2022/10/19 03:20:38;;;;;;;;;;;;;;;12.87;nan;101449.72;5086386;28;20400;-68
2022/10/19 03:23:03;;;;;;;14.23;8.30;;;;;;;12.93;nan;101450.00;5087703;28;19916;-68
2022/10/19 03:25:28;;;;;;;13.38;7.70;;;;;;;12.99;nan;101447.75;5067982;28;20041;-68
2022/10/19 03:27:54;;;;;;;;;;;;;;;12.99;nan;101440.63;5086805;28;20401;-68
2022/10/19 03:30:19;;;;;;;13.13;7.50;;;;;;;13.02;nan;101445.66;5087868;28;19920;-68
2022/10/19 03:32:44;;;;;;;11.50;6.75;;;;;;;13.03;nan;101444.66;5069786;28;20512;-68
2022/10/19 03:35:10;;;;;;;12.15;6.30;;;;;;;13.02;nan;101442.16;5067562;28;20036;-68
2022/10/19 03:37:35;;;;;;;8.50;5.50;;;;;;;13.00;nan;101439.63;5081288;28;20074;-68
2022/10/19 03:40:00;;;;;;;7.47;4.60;;;;;;;12.97;nan;101442.59;5078678;28;20412;-68
2022/10/19 03:42:26;;;;;;;9.63;5.75;;;;;;;12.93;nan;101439.38;5087619;28;20081;-68
2022/10/19 03:44:51;;;;;;;7.50;4.77;;;;;;;12.87;nan;101450.59;5084665;28;20036;-68
2022/10/19 03:47:16;;;;;;;8.05;5.00;;;;;;;12.81;nan;101439.69;5066577;28;20295;-68
2022/10/19 03:49:42;;;;;;;7.68;4.68;;;;;;;12.74;nan;101442.91;5086844;28;20055;-68
2022/10/19 03:52:08;;;;;;;8.95;4.82;;;;;;;12.69;nan;101441.69;5085963;28;20063;-68
2022/10/19 03:54:34;;;;;;;8.05;5.28;;;;;;;12.64;nan;101444.75;5087438;28;20091;-68
2022/10/19 03:56:59;;;;;;;7.13;5.15;;;;;;;12.62;nan;101437.94;5081289;28;20516;-68
2022/10/19 03:59:24;;;;;;;7.18;4.70;;;;;;;12.54;nan;101442.13;5069298;28;20040;-68
2022/10/19 04:01:50;;;;;;;6.57;4.55;;;;;;;12.47;nan;101440.19;5083471;28;20044;-68
2022/10/19 04:04:17;;;;;;;8.10;4.88;;;;;;;12.40;nan;101441.75;5084943;28;20435;-68
2022/10/19 04:06:44;;;;;;;7.28;5.13;;;;;;;12.37;nan;101436.69;5093999;28;20333;-68
2022/10/19 04:09:15;;;;;;;7.13;5.00;;;;;;;12.36;nan;101437.69;5078448;28;20115;-68
2022/10/19 04:11:40;;;;;;;5.28;3.63;;;;;;;12.30;nan;101437.28;5087293;28;20070;-68
2022/10/19 04:14:06;;;;;;;7.63;5.22;;;;;;;12.25;nan;101439.53;5082195;28;20394;-69
2022/10/19 04:16:32;;;;;;;8.88;4.63;;;;;;;12.23;nan;101437.97;5085683;28;20807;-68
2022/10/19 04:18:58;;;;;;;4.88;3.75;;;;;;;12.30;nan;101441.75;5081067;28;20406;-68
2022/10/19 04:21:24;;;;;;;4.93;3.60;;;;;;;12.20;nan;101439.06;5088448;28;20035;-68
2022/10/19 04:23:53;;;;;;;6.20;4.68;;;;;;;12.17;nan;101435.88;5081282;28;20081;-68
2022/10/19 04:26:19;;;;;;;5.80;4.47;;;;;;;12.13;nan;101448.56;5084352;28;20032;-68
2022/10/19 04:28:44;;;;;;;8.05;5.03;;;;;;;12.17;nan;101438.53;5088648;28;20032;-68
2022/10/19 04:31:11;;;;;;;7.60;5.50;;;;;;;12.22;nan;101441.59;5086577;28;21463;-68
2022/10/19 04:33:37;;;;;;;7.88;5.47;;;;;;;12.30;nan;101445.22;5077312;28;20072;-68
2022/10/19 04:36:05;;;;;;;6.95;4.88;;;;;;;12.36;nan;101446.47;5069275;28;20039;-69
2022/10/19 04:38:32;;;;;;;5.88;4.40;;;;;;;12.37;nan;101450.81;5086497;28;20511;-68
2022/10/19 04:41:02;;;;;;;6.20;4.28;;;;;;;12.37;nan;101448.16;5084168;28;20396;-68
2022/10/19 04:43:27;;;;;;;7.57;4.93;;;;;;;12.38;nan;101457.78;5076426;28;20634;-69
2022/10/19 04:45:53;;;;;;;7.28;4.30;;;;;;;12.41;nan;101457.50;5086390;28;20058;-68
2022/10/19 04:48:30;;;;;;;6.65;4.15;;;;;;;12.41;nan;101457.50;5055146;28;20052;-68
2022/10/19 04:50:55;;;;;;;5.47;4.15;;;;;;;12.38;nan;101451.66;5085432;28;20044;-68
2022/10/19 04:53:21;;;;;;;4.78;3.20;;;;;;;12.30;nan;101453.19;5087761;28;20115;-68
2022/10/19 04:55:46;;;;;;;7.47;3.95;;;;;;;12.23;nan;101451.25;5070085;28;20043;-68
2022/10/19 04:58:11;;;;;;;5.53;4.10;;;;;;;12.15;nan;101451.09;5081382;28;20481;-68
2022/10/19 05:00:37;;;;;;;5.10;3.78;;;;;;;12.08;nan;101445.50;5081716;28;20036;-68
2022/10/19 05:03:03;;;;;;;4.38;3.20;;;;;;;12.01;nan;101447.03;5067065;28;20036;-68
2022/10/19 05:05:28;;;;;;;5.45;3.25;;;;;;;11.94;nan;101441.47;5086211;28;20038;-68
2022/10/19 05:07:53;;;;;;;4.05;2.85;;;;;;;11.87;nan;101435.03;5085047;28;20431;-68
2022/10/19 05:10:19;;;;;;;4.32;3.13;;;;;;;11.81;nan;101439.03;5066235;28;20465;-68
2022/10/19 05:12:44;;;;;;;4.32;2.72;;;;;;;11.77;nan;101431.50;5085083;28;20241;-68
2022/10/19 05:15:10;;;;;;;4.05;2.97;;;;;;;11.74;nan;101434.41;5066568;28;20035;-68
2022/10/19 05:17:35;;;;;;;4.65;3.10;;;;;;;11.76;nan;101428.00;5064710;28;20036;-69
2022/10/19 05:20:00;;;;;;;5.57;3.72;;;;;;;11.79;nan;101416.28;5084716;28;20133;-68
2022/10/19 05:22:26;;;;;;;5.28;3.75;;;;;;;11.84;nan;101414.06;5083265;28;20525;-69
2022/10/19 05:24:51;;;;;;;6.15;4.18;;;;;;;11.85;nan;101418.41;5079409;28;20033;-68
2022/10/19 05:27:16;;;;;;;5.05;3.35;;;;;;;11.83;nan;101415.06;5086213;28;20119;-68
2022/10/19 05:29:41;;;;;;;6.43;4.07;;;;;;;11.82;nan;101414.22;5088080;28;20035;-68
2022/10/19 05:32:07;;;;;;;4.55;3.38;;;;;;;11.78;nan;101414.63;5071111;28;20038;-69
2022/10/19 05:34:32;;;;;;;3.97;2.97;;;;;;;11.76;nan;101414.75;5084309;28;20047;-68
2022/10/19 05:36:57;;;;;;;4.35;3.50;;;;;;;11.80;nan;101416.16;5077427;28;20037;-68
2022/10/19 05:39:23;;;;;;;6.68;3.90;;;;;;;11.83;nan;101420.34;5079469;28;20086;-69
2022/10/19 05:41:48;;;;;;;7.57;5.28;;;;;;;11.93;nan;101421.22;5083983;28;20060;-69
2022/10/19 05:44:19;;;;;;;7.43;5.18;;;;;;;12.01;nan;101425.81;5067932;28;20035;-68
2022/10/19 05:46:45;;;;;;;7.32;5.35;;;;;;;12.06;nan;101424.44;5068088;28;20493;-68
2022/10/19 05:49:12;;;;;;;8.00;5.70;;;;;;;12.07;nan;101423.47;5080456;28;20039;-68
2022/10/19 05:51:38;;;;;;;8.38;5.80;;;;;;;12.10;nan;101422.34;5064642;28;20028;-68
2022/10/19 05:54:03;;;;;;;6.97;5.07;;;;;;;12.09;nan;101425.97;5084630;28;20086;-68
2022/10/19 05:56:31;;;;;;;6.28;4.82;;;;;;;12.08;nan;101419.84;5067361;28;20033;-69
2022/10/19 05:58:58;;;;;;;6.93;4.53;;;;;;;12.04;nan;101425.56;5072558;28;20036;-68
2022/10/19 06:01:24;;;;;;;6.05;4.50;;;;;;;11.99;nan;101428.63;5081836;28;20025;-68
2022/10/19 06:03:55;;;;;;;5.30;4.03;;;;;;;11.94;nan;101433.50;5084420;28;20043;-69
2022/10/19 06:06:20;;;;;;;4.88;3.63;;;;;;;11.91;nan;101439.06;5092096;28;20032;-68
2022/10/19 06:08:46;;;;;;;5.35;3.35;;;;;;;11.88;nan;101426.09;5082385;28;20090;-69
2022/10/19 06:11:17;;;;;;;5.00;3.80;;;;;;;11.88;nan;101423.44;5070388;28;20028;-68
2022/10/19 06:13:44;;;;;;;5.80;4.60;;;;;;;11.90;nan;101424.16;5083554;28;20435;-68
2022/10/19 06:16:12;;;;;;;7.18;4.97;;;;;;;11.93;nan;101429.16;5084969;28;20570;-68
2022/10/19 06:18:38;;;;;;;7.43;5.75;;;;;;;11.99;nan;101425.97;5074232;28;20093;-69
2022/10/19 06:21:06;;;;;;;8.40;5.60;;;;;;;12.05;nan;101430.72;5080451;28;20056;-68
2022/10/19 06:23:32;;;;;;;8.30;5.78;;;;;;;12.06;nan;101421.78;5084909;28;20024;-69
2022/10/19 06:26:00;;;;;;;5.78;4.35;;;;;;;12.06;nan;101420.94;5081748;28;20120;-68
2022/10/19 06:28:26;;;;;;;5.30;3.70;;;;;;;12.03;nan;101424.69;5070978;28;20028;-68
2022/10/19 06:30:51;;;;;;;6.43;4.18;;;;;;;12.01;nan;101431.13;5066099;28;20028;-68
2022/10/19 06:33:17;;;;;;;6.78;3.78;;;;;;;12.01;nan;101431.97;5082294;28;20025;-68
2022/10/19 06:35:42;;;;;;;4.60;3.35;;;;;;;12.00;nan;101427.63;5066090;28;20044;-69
2022/10/19 06:38:08;;;;;;;6.72;4.75;;;;;;;12.04;nan;101428.22;5083756;28;20447;-69
2022/10/19 06:40:34;;;;;;;8.85;6.30;;;;;;;12.07;nan;101431.41;5069153;28;20032;-69
2022/10/19 06:43:00;;;;;;;8.43;6.13;;;;;;;12.14;nan;101425.56;5076170;28;20037;-69
2022/10/19 06:45:26;;;;;;;10.13;7.05;;;;;;;12.19;nan;101432.09;5067597;28;20047;-68
2022/10/19 06:47:51;;;;;;;14.30;8.68;;;;;;;12.30;nan;101426.66;5079235;28;20040;-69
2022/10/19 06:50:17;;;;;;;13.05;8.90;;;;;;;12.38;nan;101433.91;5089944;28;20066;-69
2022/10/19 06:52:42;;;;;;;14.95;9.60;;;;;;;12.48;nan;101434.72;5091167;28;20039;-68
2022/10/19 06:55:08;;;;;;;14.10;9.48;;;;;;;12.61;nan;101433.59;5069493;28;20032;-69
2022/10/19 06:57:33;;;;;;;13.02;9.30;;;;;;;12.70;nan;101440.69;5070717;28;20025;-69
2022/10/19 06:59:58;;;;;;;10.82;7.55;;;;;;;12.75;nan;101435.78;5072321;28;20044;-68
2022/10/19 07:02:23;;;;;;;10.88;7.72;;;;;;;12.83;nan;101443.88;5076285;28;20040;-69
2022/10/19 07:04:49;;;;;;;12.55;8.27;;;;;;;12.92;nan;101440.38;5065564;28;20040;-68
2022/10/19 07:07:14;;;;;;;12.60;8.48;;;;;;;13.03;nan;101442.00;5083900;28;20066;-68
2022/10/19 07:09:40;;;;;;;11.75;8.40;;;;;;;13.11;nan;101438.63;5085600;28;20416;-69
2022/10/19 07:12:05;;;;;;;13.73;9.43;;;;;;;13.22;nan;101442.91;5081909;28;20523;-68
2022/10/19 07:14:37;;;;;;;13.95;8.95;;;;;;;13.32;nan;101447.25;5090214;28;20489;-69
2022/10/19 07:17:02;;;;;;;12.07;8.70;;;;;;;13.48;nan;101437.78;5079093;28;20044;-69
2022/10/19 07:19:27;;;;;;;13.13;8.68;;;;;;;13.64;nan;101445.94;5075575;28;20401;-68
2022/10/19 07:21:53;;;;;;;11.77;8.02;;;;;;;13.75;nan;101432.44;5082284;28;20032;-69
2022/10/19 07:24:18;;;;;;;10.05;7.57;;;;;;;13.85;nan;101442.16;5090294;28;20047;-69
2022/10/19 07:26:43;;;;;;;10.05;7.53;;;;;;;13.95;nan;101445.59;5067553;28;20045;-69
2022/10/19 07:29:09;;;;;;;9.90;6.68;;;;;;;14.07;nan;101444.38;5078032;28;20040;-68
2022/10/19 07:31:34;;;;;;;9.05;6.57;;;;;;;14.15;nan;101447.09;5080216;28;20039;-69
2022/10/19 07:34:01;;;;;;;11.38;6.63;;;;;;;14.23;nan;101449.03;5071267;28;20123;-69
2022/10/19 07:36:29;;;;;;;7.45;5.60;;;;;;;14.24;nan;101450.69;5071277;28;20089;-69
2022/10/19 07:38:54;;;;;;;7.65;5.50;;;;;;;14.20;nan;101452.78;5089970;28;20111;-69
2022/10/19 07:41:23;;;;;;;6.47;4.60;;;;;;;14.16;nan;101448.78;5090179;28;20119;-68
2022/10/19 07:43:49;;;;;;;8.50;5.25;;;;;;;14.12;nan;101455.41;5072022;28;20306;-69
2022/10/19 07:46:20;;;;;;;8.20;6.13;;;;;;;14.12;nan;101458.06;5077008;28;20066;-69
2022/10/19 07:48:46;;;;;;;7.20;5.60;;;;;;;14.08;nan;101459.34;5078125;28;20093;-69
2022/10/19 07:51:14;;;;;;;5.78;4.80;;;;;;;14.03;nan;101467.75;5070260;28;20070;-68
2022/10/19 07:53:39;;;;;;;4.30;3.58;;;;;;;13.94;nan;101458.06;5069729;28;20032;-68
2022/10/19 07:56:08;;;;;;;5.55;3.50;;;;;;;13.81;nan;101469.03;5081175;28;20093;-69
2022/10/19 07:58:33;;;;;;;4.55;2.65;;;;;;;13.70;nan;101471.06;5080406;28;20130;-69
2022/10/19 08:01:00;;;;;;;3.28;2.78;;;;;;;13.72;nan;101467.28;5069835;28;20442;-69
2022/10/19 08:03:26;;;;;;;4.13;2.58;;;;;;;13.73;nan;101474.28;5076389;28;20035;-69
2022/10/19 08:05:51;;;;;;;3.28;2.88;;;;;;;13.68;nan;101475.69;5066728;28;20033;-69
2022/10/19 08:08:16;;;;;;;5.88;2.90;;;;;;;13.69;nan;101486.19;5074072;28;20032;-69
2022/10/19 08:10:41;;;;;;;14.57;3.17;;;;;;;13.70;nan;101484.38;5089114;28;20504;-69
2022/10/19 08:13:07;;;;;;;15.52;3.30;;;;;;;13.71;nan;101481.56;5074918;28;20037;-69
2022/10/19 08:15:32;;;;;;;11.35;3.33;;;;;;;13.86;nan;101481.91;5086949;28;20040;-69
2022/10/19 08:17:58;;;;;;;10.48;3.50;;;;;;;14.00;nan;101478.72;5078618;28;20032;-69
2022/10/19 08:20:24;;;;;;;11.52;3.75;;;;;;;14.38;nan;101476.75;5076225;28;20032;-69
2022/10/19 08:22:49;;;;;;;7.70;3.35;;;;;;;14.56;nan;101475.91;5088384;28;20137;-69
2022/10/19 08:25:14;;;;;;;6.15;4.13;;;;;;;14.67;nan;101481.00;5086076;28;20307;-69
2022/10/19 08:27:40;;;;;;;5.18;3.28;;;;;;;14.86;nan;101471.97;5088971;28;20044;-69
2022/10/19 08:30:05;;;;;;;5.35;3.47;;;;;;;15.02;nan;101469.41;5085650;28;20412;-69
2022/10/19 08:32:31;;;;;;;6.28;3.35;;;;;;;15.10;nan;101463.28;5073453;28;20068;-69
2022/10/19 08:34:56;;;;;;;5.00;3.40;;;;;;;15.46;nan;101458.63;5080282;28;20467;-69
2022/10/19 08:37:21;;;;;;;5.55;4.25;;;;;;;15.79;nan;101457.94;5075123;28;20416;-69
2022/10/19 08:39:47;;;;;;;4.43;3.72;;;;;;;16.13;nan;101461.31;5066858;28;20114;-69
2022/10/19 08:42:17;;;;;;;5.28;3.40;;;;;;;16.61;nan;101458.78;5068670;28;20029;-70
2022/10/19 08:44:57;;;;;;;5.07;3.60;;;;;;;16.87;nan;101450.59;5083304;28;20033;-69
2022/10/19 08:47:56;;;;;;;4.80;3.90;;;;;;;17.18;nan;101445.38;5089343;28;20036;-69
2022/10/19 08:50:24;;;;;;;5.88;4.00;;;;;;;17.35;nan;101446.13;5082120;28;20032;-69
2022/10/19 08:53:21;;;;;;;10.38;4.65;;;;;;;17.43;nan;101447.09;5088342;28;20495;-69
2022/10/19 08:55:49;;;;;;;4.13;3.25;;;;;;;17.72;nan;101438.41;5066827;28;20485;-69
2022/10/19 08:58:34;;;;;;;3.80;3.17;;;;;;;17.75;nan;101440.72;5080285;28;20036;-70
2022/10/19 09:01:11;;;;;;;4.90;3.80;;;;;;;17.68;nan;101443.25;5068605;28;20117;-69
2022/10/19 09:03:56;;;;;;;4.78;3.70;;;;;;;17.68;nan;101445.94;5076132;28;20082;-69
2022/10/19 09:06:35;;;;;;;3.97;3.20;;;;;;;17.99;nan;101450.47;5069563;28;20043;-69
2022/10/19 09:09:01;;;;;;;5.80;3.88;;;;;;;18.25;nan;101447.44;5068667;28;20089;-69
2022/10/19 09:11:35;;;;;;;5.13;3.70;;;;;;;18.20;nan;101449.81;5087477;28;20032;-69
2022/10/19 09:14:12;;;;;;;6.18;4.40;;;;;;;17.99;nan;101443.25;5069469;28;20036;-69
2022/10/19 09:16:37;;;;;;;5.70;4.72;;;;;;;17.85;nan;101446.72;5066016;28;20044;-69
2022/10/19 09:19:16;;;;;;;6.55;3.97;;;;;;;17.71;nan;101448.28;5067398;28;20039;-69
2022/10/19 09:21:47;;;;;;;6.05;4.13;;;;;;;17.66;nan;101447.97;5088399;28;20023;-69
2022/10/19 09:24:36;;;;;;;5.80;4.55;;;;;;;17.59;nan;101444.31;5088435;28;20112;-69
2022/10/19 09:27:02;;;;;;;4.90;4.10;;;;;;;17.51;nan;101449.72;5084517;28;20078;-69
2022/10/19 09:29:49;;;;;;;5.80;4.95;;;;;;;17.37;nan;101445.94;5074994;28;20040;-69
2022/10/19 09:32:23;;;;;;;4.72;4.13;;;;;;;17.24;nan;101448.34;5079999;28;20024;-69
2022/10/19 09:35:01;;;;;;;5.65;4.43;;;;;;;17.22;nan;101443.16;5069488;28;20098;-69
2022/10/19 09:37:27;;;;;;;6.10;4.85;;;;;;;17.12;nan;101442.53;5068982;28;20059;-69
2022/10/19 09:39:53;;;;;;;5.00;4.40;;;;;;;17.07;nan;101437.72;5087085;28;20394;-69
2022/10/19 09:42:25;;;;;;;5.40;4.40;;;;;;;17.05;nan;101439.72;5083315;28;20036;-69
2022/10/19 09:44:51;;;;;;;4.13;3.30;;;;;;;17.10;nan;101441.88;5068624;28;20070;-69
2022/10/19 09:47:32;;;;;;;5.88;3.97;;;;;;;17.10;nan;101426.66;5074787;28;20086;-69
2022/10/19 09:50:20;;;;;;;4.35;3.40;;;;;;;17.35;nan;101426.56;5073422;28;20036;-69
2022/10/19 09:52:48;;;;;;;5.95;4.80;;;;;;;17.66;nan;101436.44;5073987;28;20639;-69
2022/10/19 09:55:13;;;;;;;6.78;4.95;;;;;;;17.97;nan;101433.75;5082724;28;20113;-69
2022/10/19 09:57:47;;;;;;;6.95;5.00;;;;;;;18.19;nan;101432.09;5068529;28;20040;-69
2022/10/19 10:00:22;;;;;;;6.03;4.68;;;;;;;18.28;nan;101431.00;5086369;28;20028;-69
2022/10/19 10:02:52;;;;;;;5.47;4.15;;;;;;;18.50;nan;101432.00;5086508;28;20043;-69
2022/10/19 10:05:28;;;;;;;5.03;4.13;;;;;;;18.72;nan;101429.44;5088391;28;20047;-69
2022/10/19 10:07:54;;;;;;;5.57;4.63;;;;;;;19.01;nan;101423.28;5070234;28;20039;-70
2022/10/19 10:10:21;;;;;;;4.88;4.07;;;;;;;19.44;nan;101426.09;5068659;28;20033;-69
2022/10/19 10:12:47;;;;;;;6.45;4.40;;;;;;;20.17;nan;101429.59;5083073;28;20036;-70
2022/10/19 10:15:21;;;;;;;4.60;3.95;;;;;;;22.12;nan;101427.66;5067026;28;20043;-70
2022/10/19 10:17:47;;;;;;;4.05;2.85;;;;;;;24.84;nan;101427.47;5084079;28;20081;-70
2022/10/19 10:20:18;;;;;;;;;;;;;;;27.01;nan;101425.50;5078528;28;20040;-68
2022/10/19 10:22:50;;;;;;;;;;;;;;;28.01;nan;101426.91;5088577;28;20399;-68
2022/10/19 10:25:17;;;;;;;;;;;;;;;28.34;nan;101422.50;5086792;28;19954;-68
2022/10/19 10:27:55;;;;;;;3.00;2.15;;;;;;;27.91;nan;101424.84;5083670;28;20292;-70
2022/10/19 10:30:20;;;;;;;2.65;2.13;;;;;;;27.44;nan;101435.09;5070896;28;20504;-70
2022/10/19 10:32:52;;;;;;;4.18;2.72;;;;;;;25.93;nan;101425.69;5085706;28;20039;-70
2022/10/19 10:35:28;;;;;;;2.90;2.45;;;;;;;24.62;nan;101421.66;5079198;28;20093;-70
2022/10/19 10:38:05;;;;;;;3.28;2.55;;;;;;;23.74;nan;101426.09;5077092;28;20055;-70
2022/10/19 10:40:30;;;;;;;4.57;2.97;;;;;;;23.17;nan;101423.22;5067310;28;20033;-70
2022/10/19 10:43:00;;;;;;;;;;;;;;;23.16;nan;101421.56;5077874;28;20040;-70
2022/10/19 10:45:32;;;;;;;3.90;2.20;;;;;;;24.29;nan;101333.59;5066800;28;19951;-68
2022/10/19 10:48:11;;;;;;;4.80;3.63;;;;;;;24.97;nan;101281.22;5079765;28;20038;-70
2022/10/19 10:50:36;;;;;;;5.65;3.70;;;;;;;;;;5086251;28;20062;-70
2022/10/19 10:53:05;;;;;;;5.13;2.95;;;;;;;24.35;nan;101267.81;5062791;28;20060;-70
2022/10/19 10:55:31;;;;;;;2.83;2.15;;;;;;;25.07;nan;101248.19;5086091;28;20055;-70
2022/10/19 10:58:29;;;;;;;3.72;3.00;;;;;;;24.79;nan;101269.38;5079473;28;20406;-71
2022/10/19 11:00:55;;;;;;;3.72;2.15;;;;;;;25.21;nan;101276.75;5059130;28;20397;-71
2022/10/19 11:03:25;;;;;;;2.90;1.98;;;;;;;25.44;nan;101248.91;5085099;28;20024;-71
2022/10/19 11:05:58;;;;;;;2.83;2.40;;;;;;;;;;5090128;28;20031;-71
2022/10/19 11:08:28;;;;;;;2.40;1.85;;;;;;;;;;5085454;28;20147;-70
2022/10/19 11:11:00;;;;;;;2.17;1.73;;;;;;;26.39;nan;101255.16;5086377;28;20032;-70
2022/10/19 11:13:44;;;;;;;2.95;2.20;;;;;;;25.74;nan;101215.47;5085669;28;20317;-70
2022/10/19 11:16:16;;;;;;;2.40;1.70;;;;;;;25.02;nan;101268.63;5081918;28;20032;-70
2022/10/19 11:19:04;;;;;;;2.25;1.70;;;;;;;24.66;nan;101252.50;5066174;28;20037;-70
2022/10/19 11:21:39;;;;;;;3.53;2.22;;;;;;;24.59;nan;101222.84;5082501;28;20065;-70
2022/10/19 11:24:17;;;;;;;2.53;1.85;;;;;;;24.46;nan;101236.50;5087564;28;20348;-70
2022/10/19 11:27:04;;;;;;;3.35;1.63;;;;;;;24.40;nan;101221.19;5086608;28;20097;-70
2022/10/19 11:29:38;;;;;;;1.80;1.27;;;;;;;24.41;nan;101212.84;5080644;28;20034;-70
2022/10/19 11:32:13;;;;;;;2.17;1.67;;;;;;;24.38;nan;101189.81;5084826;28;20039;-71
2022/10/19 11:35:00;;;;;;;2.42;1.60;;;;;;;24.24;nan;101212.66;5080228;28;20028;-70
2022/10/19 11:38:07;;;;;;;2.30;1.73;;;;;;;23.61;nan;101192.06;5076774;28;20047;-70
2022/10/19 11:40:52;;;;;;;2.25;1.60;;;;;;;23.17;nan;101171.44;5088151;28;20028;-70
2022/10/19 11:43:44;;;;;;;3.70;2.22;;;;;;;22.87;nan;101204.44;5083754;28;20036;-70
2022/10/19 11:46:12;;;;;;;2.83;2.22;;;;;;;;;;5081785;28;20035;-70
2022/10/19 11:49:09;;;;;;;2.85;2.20;;;;;;;22.16;nan;101265.41;5088837;28;20386;-69
2022/10/19 11:51:41;;;;;;;2.15;1.73;;;;;;;;;;5078556;28;20047;-70
2022/10/19 11:54:22;;;;;;;2.10;1.73;;;;;;;;;;5080161;28;20949;-70
2022/10/19 11:57:01;;;;;;;2.10;1.80;;;;;;;;;;5089265;28;20921;-69